24 september 2022

Tijd Code Weer Temp. Zicht Plafond Wind METAR/SPECI
17:20
V
15 °C 10 km+ - Var Var 2 kt METAR EDLW 241520Z VRB02KT 9999 FEW017 15/12 Q1013
16:50
V
15 °C 10 km+ - 010° 010° 3 kt METAR EDLW 241450Z 01003KT 320V060 9999 FEW039 15/12 Q1013
16:20
V
15 °C 10 km+ - Var Var 2 kt METAR EDLW 241420Z VRB02KT CAVOK 15/12 Q1013
15:50
V
15 °C 10 km+ - Var Var 2 kt METAR EDLW 241350Z VRB02KT CAVOK 15/11 Q1013
15:20
V
15 °C 10 km+ - Var Var 1 kt METAR EDLW 241320Z VRB01KT 9999 FEW012 15/11 Q1013
14:50
V
15 °C 10 km+ - Var Var 2 kt METAR EDLW 241250Z VRB02KT 9999 FEW012 15/11 Q1013
14:20
V
16 °C 10 km+ - 330° 330° 3 kt METAR EDLW 241220Z 33003KT 260V040 9999 FEW026 16/11 Q1013
13:50
V
16 °C 10 km+ - 300° 300° 3 kt METAR EDLW 241150Z 30003KT 240V010 9999 FEW025 16/10 Q1013
13:20
V
16 °C 10 km+ 4.800 ft Var Var 2 kt METAR EDLW 241120Z VRB02KT 9999 SCT024 SCT027 BKN048 16/11 Q1013
12:50
V
16 °C 10 km+ 4.200 ft Var Var 2 kt METAR EDLW 241050Z VRB02KT 9999 BKN042 BKN048 16/11 Q1013
12:20
V
16 °C 10 km+ 4.400 ft Var Var 1 kt METAR EDLW 241020Z VRB01KT 9999 FEW024 BKN044 16/11 Q1013
11:50
V
16 °C 10 km+ - Var Var 2 kt METAR EDLW 240950Z VRB02KT 9999 SCT044 16/10 Q1013
11:20
V
15 °C 10 km+ 4.400 ft 250° 250° 3 kt METAR EDLW 240920Z 25003KT 180V280 9999 BKN044 15/10 Q1013
10:50
V
15 °C 10 km+ 4.400 ft 150° 150° 3 kt METAR EDLW 240850Z 15003KT 110V200 9999 BKN044 15/10 Q1013
10:20
V
14 °C 10 km+ - 140° 140° 4 kt METAR EDLW 240820Z 14004KT 9999 SCT045 14/10 Q1013
09:50
V
14 °C 10 km+ - 160° 160° 6 kt METAR EDLW 240750Z 16006KT CAVOK 14/10 Q1013
09:20
V
13 °C 10 km+ - 160° 160° 6 kt METAR EDLW 240720Z 16006KT 130V190 CAVOK 13/10 Q1012
08:50
V
12 °C 10 km+ - 160° 160° 5 kt METAR EDLW 240650Z 16005KT CAVOK 12/09 Q1012
08:20
V
12 °C 10 km+ - 140° 140° 5 kt METAR EDLW 240620Z 14005KT CAVOK 12/09 Q1012
07:50
V
12 °C 10 km+ - 140° 140° 6 kt METAR EDLW 240550Z 14006KT 9999 FEW048 12/09 Q1012
07:20
V
12 °C 10 km+ - 150° 150° 6 kt METAR EDLW 240520Z 15006KT CAVOK 12/09 Q1012
06:50
V
12 °C 10 km+ - 150° 150° 5 kt METAR EDLW 240450Z 15005KT 9999 FEW037 12/10 Q1012
06:20
V
12 °C 10 km+ 3.200 ft 180° 180° 4 kt METAR EDLW 240420Z 18004KT 9999 -RA FEW018 BKN032 12/10 Q1012
05:50
V
12 °C 10 km+ - 180° 180° 4 kt METAR EDLW 240350Z 18004KT 9999 FEW018 12/10 Q1012
05:20
M
12 °C 10 km+ 1.900 ft 210° 210° 4 kt METAR EDLW 240320Z 21004KT 9999 BKN019 BKN034 12/10 Q1013
04:50
V
13 °C 10 km+ 3.100 ft 210° 210° 3 kt METAR EDLW 240250Z AUTO 21003KT 9999 // FEW012/// OVC031/// 13/10 Q1013
04:20
V
12 °C 10 km+ 3.000 ft 230° 230° 4 kt METAR EDLW 240220Z AUTO 23004KT 9999 // FEW013/// OVC030/// 12/09 Q1013
03:50
M
13 °C 10 km+ 2.900 ft 210° 210° 4 kt METAR EDLW 240150Z AUTO 21004KT 9999 // BKN029/// OVC035/// 13/09 Q1013
03:20
M
13 °C 10 km+ 2.900 ft 220° 220° 5 kt METAR EDLW 240120Z AUTO 22005KT 9999 // BKN029/// OVC036/// 13/09 Q1013
02:50
M
12 °C 10 km+ 2.900 ft 210° 210° 4 kt METAR EDLW 240050Z AUTO 21004KT 180V260 9999 // BKN029/// OVC035/// 12/08 Q1013
02:20
V
13 °C 10 km+ 9.700 ft 160° 160° 5 kt METAR EDLW 240020Z AUTO 16005KT 9999 // SCT030/// BKN097/// 13/08 Q1013
01:50
V
12 °C 10 km+ - 160° 160° 6 kt METAR EDLW 232350Z AUTO 16006KT 9999 // FEW096/// 12/08 Q1013
01:20
V
13 °C 10 km+ 9.600 ft 160° 160° 6 kt METAR EDLW 232320Z AUTO 16006KT 9999 // FEW036/// SCT041/// BKN096/// 13/08 Q1013
00:50
V
13 °C 10 km+ - 170° 170° 5 kt METAR EDLW 232250Z AUTO 17005KT 9999 // FEW093/// 13/08 Q1014
00:20
V
13 °C 10 km+ - 170° 170° 6 kt METAR EDLW 232220Z AUTO 17006KT 9999 // FEW090/// 13/08 Q1014

23 september 2022

Tijd Code Weer Temp. Zicht Plafond Wind METAR/SPECI
23:50
V
13 °C 10 km+ - 170° 170° 5 kt METAR EDLW 232150Z AUTO 17005KT 9999 // FEW100/// 13/08 Q1014
23:20
V
13 °C 10 km+ - 200° 200° 4 kt METAR EDLW 232120Z AUTO 20004KT 9999 // SCT110/// 13/08 Q1014
22:50
V
12 °C 10 km+ - 190° 190° 5 kt METAR EDLW 232050Z 19005KT CAVOK 12/08 Q1014
22:20
V
13 °C 10 km+ - 210° 210° 5 kt METAR EDLW 232020Z 21005KT CAVOK 13/08 Q1014
21:50
V
13 °C 10 km+ - 180° 180° 6 kt METAR EDLW 231950Z 18006KT CAVOK 13/09 Q1014
21:20
V
13 °C 10 km+ - 170° 170° 4 kt METAR EDLW 231920Z 17004KT CAVOK 13/09 Q1014
20:50
V
14 °C 10 km+ - 180° 180° 5 kt METAR EDLW 231850Z 18005KT CAVOK 14/08 Q1014
20:20
V
13 °C 10 km+ - 170° 170° 3 kt METAR EDLW 231820Z 17003KT 9999 FEW046 13/08 Q1014
19:50
V
14 °C 10 km+ - 210° 210° 4 kt METAR EDLW 231750Z 21004KT 9999 FEW036 14/08 Q1015
19:20
V
15 °C 10 km+ - 220° 220° 5 kt METAR EDLW 231720Z 22005KT CAVOK 15/08 Q1015
18:50
V
15 °C 10 km+ - 220° 220° 5 kt METAR EDLW 231650Z 22005KT CAVOK 15/08 Q1015
18:20
V
16 °C 10 km+ - 230° 230° 7 kt METAR EDLW 231620Z 23007KT CAVOK 16/07 Q1015
17:50
V
16 °C 10 km+ - 240° 240° 6 kt METAR EDLW 231550Z 24006KT CAVOK 16/07 Q1015
17:20
V
17 °C 10 km+ - 220° 220° 6 kt METAR EDLW 231520Z 22006KT CAVOK 17/07 Q1015
16:50
V
17 °C 10 km+ - 210° 210° 9 kt METAR EDLW 231450Z 21009KT CAVOK 17/07 Q1015
16:20
V
18 °C 10 km+ - 220° 220° 7 kt METAR EDLW 231420Z 22007KT CAVOK 18/08 Q1015
15:50
V
18 °C 10 km+ - 240° 240° 5 kt METAR EDLW 231350Z 24005KT CAVOK 18/07 Q1015
15:20
V
18 °C 10 km+ - 230° 230° 6 kt METAR EDLW 231320Z 23006KT 180V250 CAVOK 18/07 Q1015
14:50
V
19 °C 10 km+ - 240° 240° 5 kt METAR EDLW 231250Z 24005KT 150V290 CAVOK 19/07 Q1015
14:20
V
18 °C 10 km+ - 200° 200° 5 kt METAR EDLW 231220Z 20005KT 160V230 CAVOK 18/07 Q1016
13:50
V
18 °C 10 km+ - 190° 190° 6 kt METAR EDLW 231150Z 19006KT 140V220 CAVOK 18/07 Q1016
13:20
V
17 °C 10 km+ - 220° 220° 5 kt METAR EDLW 231120Z 22005KT 160V260 CAVOK 17/06 Q1016
12:50
V
17 °C 10 km+ - 220° 220° 4 kt METAR EDLW 231050Z 22004KT 170V260 CAVOK 17/08 Q1016
12:20
V
16 °C 10 km+ - 200° 200° 4 kt METAR EDLW 231020Z 20004KT 160V230 CAVOK 16/07 Q1017
11:50
V
16 °C 10 km+ - 200° 200° 5 kt METAR EDLW 230950Z 20005KT 160V220 CAVOK 16/07 Q1017
11:20
V
15 °C 10 km+ - 200° 200° 7 kt METAR EDLW 230920Z 20007KT CAVOK 15/07 Q1017
10:50
V
15 °C 10 km+ - 180° 180° 9 kt METAR EDLW 230850Z 18009KT CAVOK 15/07 Q1017
10:20
V
14 °C 10 km+ - 170° 170° 8 kt METAR EDLW 230820Z 17008KT CAVOK 14/07 Q1017
09:50
V
14 °C 10 km+ - 170° 170° 9 kt METAR EDLW 230750Z 17009KT CAVOK 14/06 Q1017
09:20
V
12 °C 10 km+ - 170° 170° 9 kt METAR EDLW 230720Z 17009KT CAVOK 12/06 Q1017
08:50
V
11 °C 10 km+ - 160° 160° 8 kt METAR EDLW 230650Z 16008KT CAVOK 11/05 Q1017
08:20
V
10 °C 10 km+ - 160° 160° 8 kt METAR EDLW 230620Z 16008KT CAVOK 10/05 Q1017
07:50
V
9 °C 10 km+ - 160° 160° 8 kt METAR EDLW 230550Z 16008KT CAVOK 09/05 Q1017
07:20
V
9 °C 10 km+ - 160° 160° 8 kt METAR EDLW 230520Z 16008KT CAVOK 09/05 Q1017
06:50
V
9 °C 10 km+ - 160° 160° 8 kt METAR EDLW 230450Z 16008KT CAVOK 09/05 Q1017
06:20
V
9 °C 10 km+ - 160° 160° 8 kt METAR EDLW 230420Z 16008KT CAVOK 09/05 Q1017
05:50
V
10 °C 10 km+ - 170° 170° 8 kt METAR EDLW 230350Z 17008KT CAVOK 10/05 Q1017
05:20
V
10 °C 10 km+ - 160° 160° 7 kt METAR EDLW 230320Z 16007KT CAVOK 10/05 Q1018
04:50
V
10 °C 10 km+ - 170° 170° 7 kt METAR EDLW 230250Z AUTO 17007KT 9999 // FEW220/// 10/05 Q1018
04:20
V
11 °C 10 km+ - 160° 160° 7 kt METAR EDLW 230220Z AUTO 16007KT 9999 // FEW230/// 11/05 Q1018
03:50
V
11 °C 10 km+ - 150° 150° 6 kt METAR EDLW 230150Z AUTO 15006KT 9999 // FEW210/// 11/05 Q1018
03:20
V
10 °C 10 km+ - 150° 150° 6 kt METAR EDLW 230120Z AUTO 15006KT 9999 // FEW220/// 10/05 Q1018
02:50
V
11 °C 10 km+ - 140° 140° 7 kt METAR EDLW 230050Z AUTO 14007KT 9999 // NCD 11/05 Q1019
02:20
V
10 °C 10 km+ - 150° 150° 6 kt METAR EDLW 230020Z AUTO 15006KT 9999 // FEW240/// 10/05 Q1019
01:50
V
11 °C 10 km+ - 160° 160° 5 kt METAR EDLW 222350Z AUTO 16005KT 9999 // NCD 11/05 Q1019
01:20
V
11 °C 10 km+ - 150° 150° 6 kt METAR EDLW 222320Z AUTO 15006KT 9999 // NCD 11/06 Q1019
00:50
V
11 °C 10 km+ - 150° 150° 6 kt METAR EDLW 222250Z AUTO 15006KT 9999 // NCD 11/05 Q1019
00:20
V
10 °C 10 km+ - 160° 160° 6 kt METAR EDLW 222220Z AUTO 16006KT 9999 // NCD 10/06 Q1019

22 september 2022

Tijd Code Weer Temp. Zicht Plafond Wind METAR/SPECI
23:50
V
10 °C 10 km+ - 150° 150° 6 kt METAR EDLW 222150Z AUTO 15006KT 9999 // NCD 10/06 Q1020
23:20
V
11 °C 10 km+ - 140° 140° 5 kt METAR EDLW 222120Z AUTO 14005KT 9999 // NCD 11/06 Q1020
22:50
V
11 °C 10 km+ - 150° 150° 6 kt METAR EDLW 222050Z 15006KT CAVOK 11/06 Q1020
22:20
V
11 °C 10 km+ - 150° 150° 6 kt METAR EDLW 222020Z 15006KT 140V200 CAVOK 11/07 Q1020
21:50
V
12 °C 10 km+ - 160° 160° 5 kt METAR EDLW 221950Z 16005KT CAVOK 12/06 Q1020
21:20
V
11 °C 10 km+ - 170° 170° 5 kt METAR EDLW 221920Z 17005KT CAVOK 11/06 Q1020
20:50
V
11 °C 10 km+ - 170° 170° 5 kt METAR EDLW 221850Z 17005KT 9999 FEW060 11/07 Q1020
20:20
V
15 °C 10 km+ - 120° 120° 3 kt METAR EDLW 221820Z 12003KT 080V150 CAVOK 15/06 Q1020
19:50
V
15 °C 10 km+ - 090° 090° 4 kt METAR EDLW 221750Z 09004KT CAVOK 15/06 Q1020
19:20
V
15 °C 10 km+ - 070° 070° 3 kt METAR EDLW 221720Z 07003KT CAVOK 15/06 Q1020
18:50
V
16 °C 10 km+ - 090° 090° 3 kt METAR EDLW 221650Z 09003KT CAVOK 16/06 Q1020
18:20
V
17 °C 10 km+ - 090° 090° 4 kt METAR EDLW 221620Z 09004KT CAVOK 17/04 Q1020
17:50
V
17 °C 10 km+ - 100° 100° 4 kt METAR EDLW 221550Z 10004KT 050V140 CAVOK 17/05 Q1020
17:20
V
18 °C 10 km+ - 080° 080° 4 kt METAR EDLW 221520Z 08004KT 040V140 CAVOK 18/05 Q1021
16:50
V
18 °C 10 km+ - 100° 100° 5 kt METAR EDLW 221450Z 10005KT CAVOK 18/04 Q1021
Oudere gegevens

Met cookies volgen wij en derde partijen jouw internetgedrag binnen onze site. Als je verdergaat gaan we ervan uit dat je dit goedvindt. Meer info